sensor_id;sensor_type;location;lat;lon;timestamp;P1;durP1;ratioP1;P2;durP2;ratioP2
16354;SDS011;8287;51.644;8.494;2023-07-02T00:01:18;4.25;;;3.78;;
16354;SDS011;8287;51.644;8.494;2023-07-02T00:03:44;5.05;;;4.43;;
16354;SDS011;8287;51.644;8.494;2023-07-02T00:06:11;6.03;;;4.88;;
16354;SDS011;8287;51.644;8.494;2023-07-02T00:08:38;6.68;;;4.30;;
16354;SDS011;8287;51.644;8.494;2023-07-02T00:11:07;5.18;;;4.68;;
16354;SDS011;8287;51.644;8.494;2023-07-02T00:13:37;7.10;;;4.90;;
16354;SDS011;8287;51.644;8.494;2023-07-02T00:16:04;8.75;;;4.15;;
16354;SDS011;8287;51.644;8.494;2023-07-02T00:18:31;5.35;;;4.60;;
16354;SDS011;8287;51.644;8.494;2023-07-02T00:20:59;5.65;;;4.95;;
16354;SDS011;8287;51.644;8.494;2023-07-02T00:23:27;4.80;;;4.30;;
16354;SDS011;8287;51.644;8.494;2023-07-02T00:25:53;7.75;;;4.90;;
16354;SDS011;8287;51.644;8.494;2023-07-02T00:28:22;7.78;;;4.47;;
16354;SDS011;8287;51.644;8.494;2023-07-02T00:30:48;6.32;;;4.28;;
16354;SDS011;8287;51.644;8.494;2023-07-02T00:33:15;8.90;;;5.28;;
16354;SDS011;8287;51.644;8.494;2023-07-02T00:35:42;6.07;;;5.10;;
16354;SDS011;8287;51.644;8.494;2023-07-02T00:38:08;5.07;;;4.57;;
16354;SDS011;8287;51.644;8.494;2023-07-02T00:40:35;5.53;;;4.55;;
16354;SDS011;8287;51.644;8.494;2023-07-02T00:43:02;6.95;;;5.32;;
16354;SDS011;8287;51.644;8.494;2023-07-02T00:45:30;4.68;;;3.83;;
16354;SDS011;8287;51.644;8.494;2023-07-02T00:47:57;7.13;;;4.40;;
16354;SDS011;8287;51.644;8.494;2023-07-02T00:50:23;7.07;;;5.43;;
16354;SDS011;8287;51.644;8.494;2023-07-02T00:52:52;8.10;;;4.93;;
16354;SDS011;8287;51.644;8.494;2023-07-02T00:55:20;6.05;;;4.82;;
16354;SDS011;8287;51.644;8.494;2023-07-02T00:57:47;7.00;;;3.83;;
16354;SDS011;8287;51.644;8.494;2023-07-02T01:00:13;6.82;;;5.15;;
16354;SDS011;8287;51.644;8.494;2023-07-02T01:02:42;6.75;;;5.32;;
16354;SDS011;8287;51.644;8.494;2023-07-02T01:05:13;4.82;;;4.18;;
16354;SDS011;8287;51.644;8.494;2023-07-02T01:07:40;6.80;;;4.63;;
16354;SDS011;8287;51.644;8.494;2023-07-02T01:10:07;5.57;;;3.78;;
16354;SDS011;8287;51.644;8.494;2023-07-02T01:12:34;4.22;;;3.72;;
16354;SDS011;8287;51.644;8.494;2023-07-02T01:15:02;5.22;;;4.05;;
16354;SDS011;8287;51.644;8.494;2023-07-02T01:17:31;6.68;;;4.53;;
16354;SDS011;8287;51.644;8.494;2023-07-02T01:20:08;11.75;;;4.50;;
16354;SDS011;8287;51.644;8.494;2023-07-02T01:22:36;5.07;;;4.35;;
16354;SDS011;8287;51.644;8.494;2023-07-02T01:25:03;7.43;;;5.28;;
16354;SDS011;8287;51.644;8.494;2023-07-02T01:27:33;6.40;;;5.72;;
16354;SDS011;8287;51.644;8.494;2023-07-02T01:30:01;5.68;;;4.97;;
16354;SDS011;8287;51.644;8.494;2023-07-02T01:32:28;7.00;;;5.88;;
16354;SDS011;8287;51.644;8.494;2023-07-02T01:34:54;5.72;;;5.20;;
16354;SDS011;8287;51.644;8.494;2023-07-02T01:37:22;9.73;;;6.05;;
16354;SDS011;8287;51.644;8.494;2023-07-02T01:39:49;8.02;;;6.00;;
16354;SDS011;8287;51.644;8.494;2023-07-02T01:42:16;7.45;;;5.68;;
16354;SDS011;8287;51.644;8.494;2023-07-02T01:44:44;10.45;;;5.93;;
16354;SDS011;8287;51.644;8.494;2023-07-02T01:47:12;7.85;;;5.80;;
16354;SDS011;8287;51.644;8.494;2023-07-02T01:49:39;9.95;;;6.53;;
16354;SDS011;8287;51.644;8.494;2023-07-02T01:52:05;7.72;;;5.60;;
16354;SDS011;8287;51.644;8.494;2023-07-02T01:54:34;11.25;;;5.88;;
16354;SDS011;8287;51.644;8.494;2023-07-02T01:57:01;6.13;;;5.53;;
16354;SDS011;8287;51.644;8.494;2023-07-02T01:59:29;6.60;;;5.32;;
16354;SDS011;8287;51.644;8.494;2023-07-02T02:01:55;8.10;;;5.22;;
16354;SDS011;8287;51.644;8.494;2023-07-02T02:04:22;5.47;;;4.97;;
16354;SDS011;8287;51.644;8.494;2023-07-02T02:06:48;6.40;;;4.43;;
16354;SDS011;8287;51.644;8.494;2023-07-02T02:09:15;6.93;;;4.88;;
16354;SDS011;8287;51.644;8.494;2023-07-02T02:11:43;5.35;;;4.82;;
16354;SDS011;8287;51.644;8.494;2023-07-02T02:14:12;4.75;;;4.00;;
16354;SDS011;8287;51.644;8.494;2023-07-02T02:16:38;7.68;;;5.30;;
16354;SDS011;8287;51.644;8.494;2023-07-02T02:19:05;7.82;;;5.05;;
16354;SDS011;8287;51.644;8.494;2023-07-02T02:21:32;5.10;;;4.60;;
16354;SDS011;8287;51.644;8.494;2023-07-02T02:23:59;9.02;;;5.72;;
16354;SDS011;8287;51.644;8.494;2023-07-02T02:26:25;8.90;;;5.78;;
16354;SDS011;8287;51.644;8.494;2023-07-02T02:28:53;11.00;;;5.47;;
16354;SDS011;8287;51.644;8.494;2023-07-02T02:31:20;12.85;;;5.78;;
16354;SDS011;8287;51.644;8.494;2023-07-02T02:33:46;9.65;;;5.15;;
16354;SDS011;8287;51.644;8.494;2023-07-02T02:36:13;7.15;;;5.85;;
16354;SDS011;8287;51.644;8.494;2023-07-02T02:38:40;9.30;;;5.00;;
16354;SDS011;8287;51.644;8.494;2023-07-02T02:41:07;9.50;;;4.80;;
16354;SDS011;8287;51.644;8.494;2023-07-02T02:43:34;9.93;;;5.82;;
16354;SDS011;8287;51.644;8.494;2023-07-02T02:46:02;7.40;;;5.65;;
16354;SDS011;8287;51.644;8.494;2023-07-02T02:48:28;9.40;;;6.05;;
16354;SDS011;8287;51.644;8.494;2023-07-02T02:50:55;8.10;;;5.78;;
16354;SDS011;8287;51.644;8.494;2023-07-02T02:53:22;7.40;;;5.35;;
16354;SDS011;8287;51.644;8.494;2023-07-02T02:55:48;10.20;;;5.95;;
16354;SDS011;8287;51.644;8.494;2023-07-02T02:58:15;8.95;;;5.95;;
16354;SDS011;8287;51.644;8.494;2023-07-02T03:00:41;8.85;;;6.45;;
16354;SDS011;8287;51.644;8.494;2023-07-02T03:03:12;10.43;;;6.15;;
16354;SDS011;8287;51.644;8.494;2023-07-02T03:05:39;7.28;;;5.53;;
16354;SDS011;8287;51.644;8.494;2023-07-02T03:08:06;11.27;;;6.80;;
16354;SDS011;8287;51.644;8.494;2023-07-02T03:10:33;10.80;;;6.47;;
16354;SDS011;8287;51.644;8.494;2023-07-02T03:12:59;9.95;;;6.15;;
16354;SDS011;8287;51.644;8.494;2023-07-02T03:15:26;6.03;;;5.47;;
16354;SDS011;8287;51.644;8.494;2023-07-02T03:17:52;10.63;;;5.28;;
16354;SDS011;8287;51.644;8.494;2023-07-02T03:20:20;9.02;;;5.80;;
16354;SDS011;8287;51.644;8.494;2023-07-02T03:22:47;14.00;;;6.57;;
16354;SDS011;8287;51.644;8.494;2023-07-02T03:25:14;7.15;;;6.13;;
16354;SDS011;8287;51.644;8.494;2023-07-02T03:27:41;7.43;;;5.88;;
16354;SDS011;8287;51.644;8.494;2023-07-02T03:30:08;7.68;;;6.95;;
16354;SDS011;8287;51.644;8.494;2023-07-02T03:32:35;9.55;;;5.88;;
16354;SDS011;8287;51.644;8.494;2023-07-02T03:35:01;11.00;;;6.45;;
16354;SDS011;8287;51.644;8.494;2023-07-02T03:37:29;7.65;;;6.30;;
16354;SDS011;8287;51.644;8.494;2023-07-02T03:39:56;9.35;;;5.80;;
16354;SDS011;8287;51.644;8.494;2023-07-02T03:42:23;11.07;;;7.07;;
16354;SDS011;8287;51.644;8.494;2023-07-02T03:44:50;11.63;;;7.18;;
16354;SDS011;8287;51.644;8.494;2023-07-02T03:47:17;8.23;;;6.25;;
16354;SDS011;8287;51.644;8.494;2023-07-02T03:49:44;7.25;;;5.85;;
16354;SDS011;8287;51.644;8.494;2023-07-02T03:52:11;7.95;;;6.28;;
16354;SDS011;8287;51.644;8.494;2023-07-02T03:54:39;8.75;;;6.75;;
16354;SDS011;8287;51.644;8.494;2023-07-02T03:57:05;8.57;;;6.25;;
16354;SDS011;8287;51.644;8.494;2023-07-02T03:59:32;9.82;;;6.75;;
16354;SDS011;8287;51.644;8.494;2023-07-02T04:01:59;10.20;;;6.65;;
16354;SDS011;8287;51.644;8.494;2023-07-02T04:04:25;11.07;;;6.10;;
16354;SDS011;8287;51.644;8.494;2023-07-02T04:06:52;10.93;;;6.07;;
16354;SDS011;8287;51.644;8.494;2023-07-02T04:09:18;7.85;;;5.50;;
16354;SDS011;8287;51.644;8.494;2023-07-02T04:11:47;9.32;;;5.85;;
16354;SDS011;8287;51.644;8.494;2023-07-02T04:14:14;6.30;;;5.22;;
16354;SDS011;8287;51.644;8.494;2023-07-02T04:16:40;8.93;;;6.60;;
16354;SDS011;8287;51.644;8.494;2023-07-02T04:19:09;9.23;;;5.45;;
16354;SDS011;8287;51.644;8.494;2023-07-02T04:21:35;9.52;;;5.70;;
16354;SDS011;8287;51.644;8.494;2023-07-02T04:24:02;12.73;;;6.13;;
16354;SDS011;8287;51.644;8.494;2023-07-02T04:26:29;8.02;;;6.00;;
16354;SDS011;8287;51.644;8.494;2023-07-02T04:28:57;9.70;;;6.55;;
16354;SDS011;8287;51.644;8.494;2023-07-02T04:31:24;13.18;;;6.88;;
16354;SDS011;8287;51.644;8.494;2023-07-02T04:33:51;10.43;;;6.53;;
16354;SDS011;8287;51.644;8.494;2023-07-02T04:36:17;9.15;;;6.82;;
16354;SDS011;8287;51.644;8.494;2023-07-02T04:38:44;12.73;;;6.68;;
16354;SDS011;8287;51.644;8.494;2023-07-02T04:41:11;11.90;;;7.10;;
16354;SDS011;8287;51.644;8.494;2023-07-02T04:43:37;12.25;;;7.82;;
16354;SDS011;8287;51.644;8.494;2023-07-02T04:46:05;11.73;;;6.90;;
16354;SDS011;8287;51.644;8.494;2023-07-02T04:48:32;18.10;;;8.70;;
16354;SDS011;8287;51.644;8.494;2023-07-02T04:50:59;14.10;;;8.48;;
16354;SDS011;8287;51.644;8.494;2023-07-02T04:53:26;13.88;;;9.27;;
16354;SDS011;8287;51.644;8.494;2023-07-02T04:55:52;14.63;;;8.68;;
16354;SDS011;8287;51.644;8.494;2023-07-02T04:58:19;11.93;;;8.52;;
16354;SDS011;8287;51.644;8.494;2023-07-02T05:00:46;14.05;;;10.25;;
16354;SDS011;8287;51.644;8.494;2023-07-02T05:03:14;19.33;;;9.65;;
16354;SDS011;8287;51.644;8.494;2023-07-02T05:05:41;14.43;;;9.52;;
16354;SDS011;8287;51.644;8.494;2023-07-02T05:08:07;14.75;;;9.13;;
16354;SDS011;8287;51.644;8.494;2023-07-02T05:10:34;14.73;;;9.55;;
16354;SDS011;8287;51.644;8.494;2023-07-02T05:13:01;11.63;;;8.30;;
16354;SDS011;8287;51.644;8.494;2023-07-02T05:15:27;13.82;;;10.18;;
16354;SDS011;8287;51.644;8.494;2023-07-02T05:17:54;16.10;;;9.82;;
16354;SDS011;8287;51.644;8.494;2023-07-02T05:20:22;15.23;;;9.43;;
16354;SDS011;8287;51.644;8.494;2023-07-02T05:22:48;14.38;;;10.10;;
16354;SDS011;8287;51.644;8.494;2023-07-02T05:25:15;13.70;;;10.52;;
16354;SDS011;8287;51.644;8.494;2023-07-02T05:27:42;20.70;;;11.00;;
16354;SDS011;8287;51.644;8.494;2023-07-02T05:30:08;18.85;;;9.82;;
16354;SDS011;8287;51.644;8.494;2023-07-02T05:32:36;16.20;;;10.20;;
16354;SDS011;8287;51.644;8.494;2023-07-02T05:35:04;18.02;;;10.27;;
16354;SDS011;8287;51.644;8.494;2023-07-02T05:37:32;17.30;;;9.73;;
16354;SDS011;8287;51.644;8.494;2023-07-02T05:39:59;14.80;;;8.85;;
16354;SDS011;8287;51.644;8.494;2023-07-02T05:42:26;17.80;;;10.20;;
16354;SDS011;8287;51.644;8.494;2023-07-02T05:44:52;19.25;;;11.07;;
16354;SDS011;8287;51.644;8.494;2023-07-02T05:47:19;20.60;;;10.88;;
16354;SDS011;8287;51.644;8.494;2023-07-02T05:49:45;19.27;;;10.05;;
16354;SDS011;8287;51.644;8.494;2023-07-02T05:52:12;14.52;;;10.38;;
16354;SDS011;8287;51.644;8.494;2023-07-02T05:54:40;16.38;;;9.80;;
16354;SDS011;8287;51.644;8.494;2023-07-02T05:57:07;14.70;;;9.55;;
16354;SDS011;8287;51.644;8.494;2023-07-02T05:59:33;17.58;;;9.88;;
16354;SDS011;8287;51.644;8.494;2023-07-02T06:02:00;16.25;;;9.48;;
16354;SDS011;8287;51.644;8.494;2023-07-02T06:04:26;18.35;;;9.27;;
16354;SDS011;8287;51.644;8.494;2023-07-02T06:06:53;20.10;;;9.05;;
16354;SDS011;8287;51.644;8.494;2023-07-02T06:09:20;13.80;;;9.65;;
16354;SDS011;8287;51.644;8.494;2023-07-02T06:11:48;15.80;;;9.45;;
16354;SDS011;8287;51.644;8.494;2023-07-02T06:14:14;17.90;;;8.93;;
16354;SDS011;8287;51.644;8.494;2023-07-02T06:16:41;16.42;;;9.52;;
16354;SDS011;8287;51.644;8.494;2023-07-02T06:19:07;24.38;;;8.80;;
16354;SDS011;8287;51.644;8.494;2023-07-02T06:21:34;14.02;;;9.70;;
16354;SDS011;8287;51.644;8.494;2023-07-02T06:24:01;14.20;;;9.38;;
16354;SDS011;8287;51.644;8.494;2023-07-02T06:26:28;22.52;;;9.80;;
16354;SDS011;8287;51.644;8.494;2023-07-02T06:28:56;16.30;;;9.23;;
16354;SDS011;8287;51.644;8.494;2023-07-02T06:31:23;20.58;;;9.55;;
16354;SDS011;8287;51.644;8.494;2023-07-02T06:33:50;15.18;;;8.50;;
16354;SDS011;8287;51.644;8.494;2023-07-02T06:36:17;23.98;;;10.25;;
16354;SDS011;8287;51.644;8.494;2023-07-02T06:38:43;17.15;;;9.75;;
16354;SDS011;8287;51.644;8.494;2023-07-02T06:41:10;21.67;;;11.00;;
16354;SDS011;8287;51.644;8.494;2023-07-02T06:43:37;16.70;;;8.27;;
16354;SDS011;8287;51.644;8.494;2023-07-02T06:46:05;15.43;;;9.20;;
16354;SDS011;8287;51.644;8.494;2023-07-02T06:48:32;16.20;;;8.60;;
16354;SDS011;8287;51.644;8.494;2023-07-02T06:50:59;15.13;;;8.25;;
16354;SDS011;8287;51.644;8.494;2023-07-02T06:53:25;17.00;;;8.25;;
16354;SDS011;8287;51.644;8.494;2023-07-02T06:55:52;16.95;;;8.52;;
16354;SDS011;8287;51.644;8.494;2023-07-02T06:58:18;14.23;;;8.43;;
16354;SDS011;8287;51.644;8.494;2023-07-02T07:00:45;18.08;;;8.85;;
16354;SDS011;8287;51.644;8.494;2023-07-02T07:03:13;12.95;;;8.07;;
16354;SDS011;8287;51.644;8.494;2023-07-02T07:05:40;17.05;;;8.57;;
16354;SDS011;8287;51.644;8.494;2023-07-02T07:08:06;14.43;;;8.02;;
16354;SDS011;8287;51.644;8.494;2023-07-02T07:10:33;15.95;;;8.77;;
16354;SDS011;8287;51.644;8.494;2023-07-02T07:13:00;18.95;;;8.07;;
16354;SDS011;8287;51.644;8.494;2023-07-02T07:15:29;17.55;;;7.72;;
16354;SDS011;8287;51.644;8.494;2023-07-02T07:17:56;16.20;;;8.23;;
16354;SDS011;8287;51.644;8.494;2023-07-02T07:20:24;14.43;;;7.88;;
16354;SDS011;8287;51.644;8.494;2023-07-02T07:22:51;18.38;;;7.85;;
16354;SDS011;8287;51.644;8.494;2023-07-02T07:25:17;19.85;;;8.65;;
16354;SDS011;8287;51.644;8.494;2023-07-02T07:27:44;15.20;;;10.55;;
16354;SDS011;8287;51.644;8.494;2023-07-02T07:30:11;17.58;;;8.95;;
16354;SDS011;8287;51.644;8.494;2023-07-02T07:32:39;20.17;;;11.10;;
16354;SDS011;8287;51.644;8.494;2023-07-02T07:35:06;20.95;;;12.13;;
16354;SDS011;8287;51.644;8.494;2023-07-02T07:37:34;18.92;;;11.30;;
16354;SDS011;8287;51.644;8.494;2023-07-02T07:40:01;21.05;;;13.55;;
16354;SDS011;8287;51.644;8.494;2023-07-02T07:42:28;22.77;;;13.32;;
16354;SDS011;8287;51.644;8.494;2023-07-02T07:44:54;30.60;;;15.43;;
16354;SDS011;8287;51.644;8.494;2023-07-02T07:47:21;21.48;;;13.75;;
16354;SDS011;8287;51.644;8.494;2023-07-02T07:49:48;28.35;;;15.07;;
16354;SDS011;8287;51.644;8.494;2023-07-02T07:52:14;24.63;;;13.98;;
16354;SDS011;8287;51.644;8.494;2023-07-02T07:54:42;23.35;;;13.88;;
16354;SDS011;8287;51.644;8.494;2023-07-02T07:57:09;18.52;;;13.75;;
16354;SDS011;8287;51.644;8.494;2023-07-02T07:59:36;17.75;;;12.80;;
16354;SDS011;8287;51.644;8.494;2023-07-02T08:02:02;23.45;;;14.48;;
16354;SDS011;8287;51.644;8.494;2023-07-02T08:04:29;21.83;;;12.95;;
16354;SDS011;8287;51.644;8.494;2023-07-02T08:06:56;27.40;;;12.75;;
16354;SDS011;8287;51.644;8.494;2023-07-02T08:09:23;24.65;;;13.02;;
16354;SDS011;8287;51.644;8.494;2023-07-02T08:11:51;24.92;;;13.45;;
16354;SDS011;8287;51.644;8.494;2023-07-02T08:14:17;24.15;;;11.77;;
16354;SDS011;8287;51.644;8.494;2023-07-02T08:16:44;26.27;;;12.25;;
16354;SDS011;8287;51.644;8.494;2023-07-02T08:19:11;23.38;;;11.55;;
16354;SDS011;8287;51.644;8.494;2023-07-02T08:21:37;25.35;;;10.85;;
16354;SDS011;8287;51.644;8.494;2023-07-02T08:24:04;16.92;;;11.45;;
16354;SDS011;8287;51.644;8.494;2023-07-02T08:26:32;17.17;;;10.20;;
16354;SDS011;8287;51.644;8.494;2023-07-02T08:29:00;17.20;;;10.68;;
16354;SDS011;8287;51.644;8.494;2023-07-02T08:31:27;25.98;;;11.07;;
16354;SDS011;8287;51.644;8.494;2023-07-02T08:33:53;19.77;;;10.82;;
16354;SDS011;8287;51.644;8.494;2023-07-02T08:36:20;20.05;;;10.80;;
16354;SDS011;8287;51.644;8.494;2023-07-02T08:38:47;22.25;;;11.57;;
16354;SDS011;8287;51.644;8.494;2023-07-02T08:41:13;20.88;;;10.60;;
16354;SDS011;8287;51.644;8.494;2023-07-02T08:43:41;19.38;;;10.27;;
16354;SDS011;8287;51.644;8.494;2023-07-02T08:46:09;18.98;;;10.07;;
16354;SDS011;8287;51.644;8.494;2023-07-02T08:48:36;19.85;;;10.52;;
16354;SDS011;8287;51.644;8.494;2023-07-02T08:51:03;17.38;;;9.40;;
16354;SDS011;8287;51.644;8.494;2023-07-02T08:53:29;16.63;;;8.65;;
16354;SDS011;8287;51.644;8.494;2023-07-02T08:55:58;16.65;;;9.07;;
16354;SDS011;8287;51.644;8.494;2023-07-02T08:58:25;20.20;;;9.93;;
16354;SDS011;8287;51.644;8.494;2023-07-02T09:01:07;18.02;;;8.52;;
16354;SDS011;8287;51.644;8.494;2023-07-02T09:03:37;18.15;;;8.43;;
16354;SDS011;8287;51.644;8.494;2023-07-02T09:06:04;13.90;;;8.88;;
16354;SDS011;8287;51.644;8.494;2023-07-02T09:08:31;13.77;;;8.13;;
16354;SDS011;8287;51.644;8.494;2023-07-02T09:11:06;15.23;;;8.82;;
16354;SDS011;8287;51.644;8.494;2023-07-02T09:13:41;19.63;;;9.63;;
16354;SDS011;8287;51.644;8.494;2023-07-02T09:16:22;16.30;;;9.95;;
16354;SDS011;8287;51.644;8.494;2023-07-02T09:19:00;21.17;;;8.95;;
16354;SDS011;8287;51.644;8.494;2023-07-02T09:21:28;14.20;;;8.27;;
16354;SDS011;8287;51.644;8.494;2023-07-02T09:24:11;20.70;;;9.15;;
16354;SDS011;8287;51.644;8.494;2023-07-02T09:26:42;17.08;;;8.18;;
16354;SDS011;8287;51.644;8.494;2023-07-02T09:29:09;12.57;;;7.57;;
16354;SDS011;8287;51.644;8.494;2023-07-02T09:31:44;15.23;;;9.50;;
16354;SDS011;8287;51.644;8.494;2023-07-02T09:34:11;18.95;;;8.55;;
16354;SDS011;8287;51.644;8.494;2023-07-02T09:36:38;14.40;;;8.55;;
16354;SDS011;8287;51.644;8.494;2023-07-02T09:39:07;13.20;;;8.23;;
16354;SDS011;8287;51.644;8.494;2023-07-02T09:41:34;13.05;;;7.50;;
16354;SDS011;8287;51.644;8.494;2023-07-02T09:44:01;12.80;;;7.13;;
16354;SDS011;8287;51.644;8.494;2023-07-02T09:46:28;16.92;;;7.47;;
16354;SDS011;8287;51.644;8.494;2023-07-02T09:48:59;16.55;;;7.50;;
16354;SDS011;8287;51.644;8.494;2023-07-02T09:51:26;17.63;;;7.90;;
16354;SDS011;8287;51.644;8.494;2023-07-02T09:53:53;18.20;;;7.68;;
16354;SDS011;8287;51.644;8.494;2023-07-02T09:56:20;16.27;;;7.70;;
16354;SDS011;8287;51.644;8.494;2023-07-02T09:58:47;14.82;;;7.88;;
16354;SDS011;8287;51.644;8.494;2023-07-02T10:01:13;16.02;;;8.25;;
16354;SDS011;8287;51.644;8.494;2023-07-02T10:03:40;12.15;;;7.28;;
16354;SDS011;8287;51.644;8.494;2023-07-02T10:06:08;11.80;;;6.63;;
16354;SDS011;8287;51.644;8.494;2023-07-02T10:08:35;18.13;;;7.38;;
16354;SDS011;8287;51.644;8.494;2023-07-02T10:11:08;12.45;;;8.10;;
16354;SDS011;8287;51.644;8.494;2023-07-02T10:13:36;15.48;;;7.22;;
16354;SDS011;8287;51.644;8.494;2023-07-02T10:16:04;15.00;;;7.03;;
16354;SDS011;8287;51.644;8.494;2023-07-02T10:18:31;16.33;;;7.35;;
16354;SDS011;8287;51.644;8.494;2023-07-02T10:20:58;12.57;;;7.20;;
16354;SDS011;8287;51.644;8.494;2023-07-02T10:23:33;12.85;;;7.15;;
16354;SDS011;8287;51.644;8.494;2023-07-02T10:26:10;15.25;;;7.22;;
16354;SDS011;8287;51.644;8.494;2023-07-02T10:28:37;17.25;;;7.70;;
16354;SDS011;8287;51.644;8.494;2023-07-02T10:31:04;12.60;;;6.95;;
16354;SDS011;8287;51.644;8.494;2023-07-02T10:33:30;13.40;;;7.28;;
16354;SDS011;8287;51.644;8.494;2023-07-02T10:35:57;14.50;;;8.18;;
16354;SDS011;8287;51.644;8.494;2023-07-02T10:38:24;15.40;;;7.55;;
16354;SDS011;8287;51.644;8.494;2023-07-02T10:40:55;17.75;;;7.55;;
16354;SDS011;8287;51.644;8.494;2023-07-02T10:43:26;16.40;;;6.78;;
16354;SDS011;8287;51.644;8.494;2023-07-02T10:45:53;16.55;;;7.95;;
16354;SDS011;8287;51.644;8.494;2023-07-02T10:48:20;15.63;;;7.20;;
16354;SDS011;8287;51.644;8.494;2023-07-02T10:50:47;15.88;;;6.95;;
16354;SDS011;8287;51.644;8.494;2023-07-02T10:53:14;19.63;;;8.27;;
16354;SDS011;8287;51.644;8.494;2023-07-02T10:55:42;13.18;;;7.68;;
16354;SDS011;8287;51.644;8.494;2023-07-02T10:58:10;13.35;;;6.78;;
16354;SDS011;8287;51.644;8.494;2023-07-02T11:00:44;11.82;;;6.78;;
16354;SDS011;8287;51.644;8.494;2023-07-02T11:03:17;14.15;;;6.72;;
16354;SDS011;8287;51.644;8.494;2023-07-02T11:05:45;17.05;;;6.47;;
16354;SDS011;8287;51.644;8.494;2023-07-02T11:08:12;15.27;;;7.20;;
16354;SDS011;8287;51.644;8.494;2023-07-02T11:10:39;17.65;;;6.38;;
16354;SDS011;8287;51.644;8.494;2023-07-02T11:13:14;12.60;;;7.45;;
16354;SDS011;8287;51.644;8.494;2023-07-02T11:15:42;12.85;;;6.35;;
16354;SDS011;8287;51.644;8.494;2023-07-02T11:18:10;11.07;;;5.95;;
16354;SDS011;8287;51.644;8.494;2023-07-02T11:20:38;14.90;;;6.63;;
16354;SDS011;8287;51.644;8.494;2023-07-02T11:23:15;12.95;;;6.18;;
16354;SDS011;8287;51.644;8.494;2023-07-02T11:25:53;14.18;;;6.28;;
16354;SDS011;8287;51.644;8.494;2023-07-02T11:28:22;11.90;;;6.10;;
16354;SDS011;8287;51.644;8.494;2023-07-02T11:30:48;11.68;;;5.35;;
16354;SDS011;8287;51.644;8.494;2023-07-02T11:33:15;13.50;;;5.72;;
16354;SDS011;8287;51.644;8.494;2023-07-02T11:35:42;12.20;;;6.25;;
16354;SDS011;8287;51.644;8.494;2023-07-02T11:38:09;10.77;;;6.15;;
16354;SDS011;8287;51.644;8.494;2023-07-02T11:40:36;12.57;;;7.00;;
16354;SDS011;8287;51.644;8.494;2023-07-02T11:43:02;14.63;;;6.07;;
16354;SDS011;8287;51.644;8.494;2023-07-02T11:45:32;11.68;;;6.25;;
16354;SDS011;8287;51.644;8.494;2023-07-02T11:47:58;13.75;;;6.55;;
16354;SDS011;8287;51.644;8.494;2023-07-02T11:50:25;9.48;;;5.80;;
16354;SDS011;8287;51.644;8.494;2023-07-02T11:52:52;11.23;;;5.97;;
16354;SDS011;8287;51.644;8.494;2023-07-02T11:55:19;12.40;;;6.13;;
16354;SDS011;8287;51.644;8.494;2023-07-02T11:57:45;10.50;;;6.40;;
16354;SDS011;8287;51.644;8.494;2023-07-02T12:00:14;11.25;;;5.72;;
16354;SDS011;8287;51.644;8.494;2023-07-02T12:02:42;16.38;;;6.50;;
16354;SDS011;8287;51.644;8.494;2023-07-02T12:05:09;14.05;;;6.57;;
16354;SDS011;8287;51.644;8.494;2023-07-02T12:07:36;14.77;;;5.97;;
16354;SDS011;8287;51.644;8.494;2023-07-02T12:10:02;13.73;;;6.18;;
16354;SDS011;8287;51.644;8.494;2023-07-02T12:12:29;9.27;;;5.70;;
16354;SDS011;8287;51.644;8.494;2023-07-02T12:14:56;12.55;;;6.55;;
16354;SDS011;8287;51.644;8.494;2023-07-02T12:17:22;11.25;;;6.25;;
16354;SDS011;8287;51.644;8.494;2023-07-02T12:19:51;12.40;;;6.35;;
16354;SDS011;8287;51.644;8.494;2023-07-02T12:22:17;13.93;;;6.40;;
16354;SDS011;8287;51.644;8.494;2023-07-02T12:24:47;14.95;;;6.72;;
16354;SDS011;8287;51.644;8.494;2023-07-02T12:27:15;11.13;;;5.85;;
16354;SDS011;8287;51.644;8.494;2023-07-02T12:29:41;14.38;;;6.85;;
16354;SDS011;8287;51.644;8.494;2023-07-02T12:32:08;12.02;;;6.97;;
16354;SDS011;8287;51.644;8.494;2023-07-02T12:34:35;12.07;;;6.82;;
16354;SDS011;8287;51.644;8.494;2023-07-02T12:37:03;15.02;;;7.43;;
16354;SDS011;8287;51.644;8.494;2023-07-02T12:39:30;14.50;;;7.53;;
16354;SDS011;8287;51.644;8.494;2023-07-02T12:41:57;18.60;;;7.55;;
16354;SDS011;8287;51.644;8.494;2023-07-02T12:44:24;10.70;;;6.13;;
16354;SDS011;8287;51.644;8.494;2023-07-02T12:46:50;15.65;;;7.00;;
16354;SDS011;8287;51.644;8.494;2023-07-02T12:49:17;14.65;;;7.15;;
16354;SDS011;8287;51.644;8.494;2023-07-02T12:51:43;14.38;;;6.13;;
16354;SDS011;8287;51.644;8.494;2023-07-02T12:54:11;12.23;;;6.75;;
16354;SDS011;8287;51.644;8.494;2023-07-02T12:56:38;12.57;;;5.72;;
16354;SDS011;8287;51.644;8.494;2023-07-02T12:59:04;13.68;;;7.25;;
16354;SDS011;8287;51.644;8.494;2023-07-02T13:01:31;14.40;;;6.72;;
16354;SDS011;8287;51.644;8.494;2023-07-02T13:03:58;15.55;;;6.85;;
16354;SDS011;8287;51.644;8.494;2023-07-02T13:06:25;13.32;;;6.60;;
16354;SDS011;8287;51.644;8.494;2023-07-02T13:08:52;15.48;;;6.45;;
16354;SDS011;8287;51.644;8.494;2023-07-02T13:11:22;14.98;;;7.13;;
16354;SDS011;8287;51.644;8.494;2023-07-02T13:13:48;13.27;;;6.97;;
16354;SDS011;8287;51.644;8.494;2023-07-02T13:16:15;13.82;;;6.07;;
16354;SDS011;8287;51.644;8.494;2023-07-02T13:18:41;15.27;;;6.63;;
16354;SDS011;8287;51.644;8.494;2023-07-02T13:21:08;17.45;;;6.40;;
16354;SDS011;8287;51.644;8.494;2023-07-02T13:23:35;10.88;;;6.00;;
16354;SDS011;8287;51.644;8.494;2023-07-02T13:26:01;11.35;;;6.25;;
16354;SDS011;8287;51.644;8.494;2023-07-02T13:28:29;14.80;;;6.30;;
16354;SDS011;8287;51.644;8.494;2023-07-02T13:30:56;13.73;;;7.18;;
16354;SDS011;8287;51.644;8.494;2023-07-02T13:33:22;10.40;;;6.05;;
16354;SDS011;8287;51.644;8.494;2023-07-02T13:35:49;13.18;;;6.72;;
16354;SDS011;8287;51.644;8.494;2023-07-02T13:38:16;8.50;;;5.30;;
16354;SDS011;8287;51.644;8.494;2023-07-02T13:40:42;11.30;;;6.20;;
16354;SDS011;8287;51.644;8.494;2023-07-02T13:43:09;10.88;;;5.85;;
16354;SDS011;8287;51.644;8.494;2023-07-02T13:45:37;12.13;;;7.03;;
16354;SDS011;8287;51.644;8.494;2023-07-02T13:48:04;11.27;;;6.43;;
16354;SDS011;8287;51.644;8.494;2023-07-02T13:50:31;10.82;;;5.80;;
16354;SDS011;8287;51.644;8.494;2023-07-02T13:52:58;11.38;;;5.68;;
16354;SDS011;8287;51.644;8.494;2023-07-02T13:55:24;16.55;;;5.65;;
16354;SDS011;8287;51.644;8.494;2023-07-02T13:57:53;10.48;;;5.38;;
16354;SDS011;8287;51.644;8.494;2023-07-02T14:00:22;10.85;;;5.40;;
16354;SDS011;8287;51.644;8.494;2023-07-02T14:02:48;9.18;;;5.03;;
16354;SDS011;8287;51.644;8.494;2023-07-02T14:05:15;10.07;;;6.03;;
16354;SDS011;8287;51.644;8.494;2023-07-02T14:07:42;11.88;;;6.05;;
16354;SDS011;8287;51.644;8.494;2023-07-02T14:10:08;11.40;;;5.60;;
16354;SDS011;8287;51.644;8.494;2023-07-02T14:12:37;9.68;;;5.78;;
16354;SDS011;8287;51.644;8.494;2023-07-02T14:15:04;9.32;;;5.30;;
16354;SDS011;8287;51.644;8.494;2023-07-02T14:17:32;8.90;;;5.28;;
16354;SDS011;8287;51.644;8.494;2023-07-02T14:19:59;8.35;;;4.90;;
16354;SDS011;8287;51.644;8.494;2023-07-02T14:22:26;9.45;;;5.93;;
16354;SDS011;8287;51.644;8.494;2023-07-02T14:24:52;8.13;;;5.15;;
16354;SDS011;8287;51.644;8.494;2023-07-02T14:27:19;10.38;;;4.50;;
16354;SDS011;8287;51.644;8.494;2023-07-02T14:29:45;8.65;;;4.63;;
16354;SDS011;8287;51.644;8.494;2023-07-02T14:32:13;8.48;;;4.75;;
16354;SDS011;8287;51.644;8.494;2023-07-02T14:34:41;8.43;;;4.88;;
16354;SDS011;8287;51.644;8.494;2023-07-02T14:37:08;10.77;;;5.35;;
16354;SDS011;8287;51.644;8.494;2023-07-02T14:39:34;8.05;;;4.88;;
16354;SDS011;8287;51.644;8.494;2023-07-02T14:42:01;9.25;;;4.47;;
16354;SDS011;8287;51.644;8.494;2023-07-02T14:44:28;7.38;;;4.50;;
16354;SDS011;8287;51.644;8.494;2023-07-02T14:46:54;8.60;;;4.75;;
16354;SDS011;8287;51.644;8.494;2023-07-02T14:49:21;7.95;;;4.38;;
16354;SDS011;8287;51.644;8.494;2023-07-02T14:51:49;6.93;;;4.80;;